Opelika, AL

11:12 AM CDT on August 01, 2015 (GMT -0500)
Opelika | | Change Station
CLOSE
Current Station
Personal Weather Station
Location: Opelika, AL
Elevation: 850 ft
Nearby Weather Stations

Elev 850 ft 32.67 °N, 85.38 °W | Updated 41 seconds ago

Clear
Clear
81.5 °F
Feels Like 85 °F
N
2.0
Wind Variable Wind from East
Gusts 2.5 mph

Today
High -- | Low -- °F
--% Chance of Precip.
Yesterday
High -- | Low -- °F
Precip. -- in
5:55 AM 7:39 PM
Full, 98% visible
Pressure 29.98 in
Visibility 10.0 miles
Clouds Scattered Clouds 6000 ft
Heat Index 85 °F
Dew Point 70 °F
Humidity 68%
Rainfall 0.00 in
Snow Depth Not available.
UV 3.0 out of 12
Pollen 4.00 out of 12
Air Quality Not available.
Flu Activity Not available.
METAR KAUO 011555Z AUTO 07005KT 10SM SCT060 29/22 A2998 RMK AO1

More Conditions Fewer Conditions

Pressure 29.98 in
Visibility 10.0 miles
Clouds Scattered Clouds 6000 ft
Heat Index 85 °F
Dew Point 70 °F
Humidity 68%
Rainfall 0.00 in
Snow Depth Not available.
UV 3.0 out of 12
Pollen 4.00 out of 12
Air Quality Not available.
Flu Activity Not available.
METAR KAUO 011555Z AUTO 07005KT 10SM SCT060 29/22 A2998 RMK AO1

More Conditions Fewer Conditions

10-Day Weather Forecast

×

Almanac

Astronomy

Aug. 01, 2015 Rise Set
Actual Time
Civil Twilight
Nautical Twilight
Astronomical Twilight
Moon
Length of Visible Light
Length of Day
Tomorrow will be .
, % of the Moon is Illuminated

Today's Extremes

State Highs State Lows

Community

WunderPhotos

Upload Photos

1,842,975 photos uploaded!

WunderBlogs® & News

Nearby

Air Quality

  Air Quality AQ Index Pollutant
Not available.

Snow Depth

Station Depth Elevation

Earthquake Activity

City Distance Mag. Time & Date
Minimum magnitude displayed is 2.5.

Coastal Water Temperatures

Place Temperature

Stations

Nearby Weather Stations

Station Location Temp. Windchill Dew Point Humidity Wind Precip. Elev Updated Type